createdAt,value
2023-01-09T00:01:34.420Z,6.75
2023-01-09T00:04:04.414Z,6.70
2023-01-09T00:06:32.450Z,6.65
2023-01-09T00:09:00.386Z,6.59
2023-01-09T00:11:28.705Z,6.54
2023-01-09T00:13:56.533Z,6.49
2023-01-09T00:16:24.491Z,6.46
2023-01-09T00:18:53.463Z,6.42
2023-01-09T00:21:21.489Z,6.33
2023-01-09T00:23:49.607Z,6.25
2023-01-09T00:26:19.859Z,6.18
2023-01-09T00:28:50.448Z,6.11
2023-01-09T00:31:19.024Z,6.09
2023-01-09T00:33:53.021Z,6.10
2023-01-09T00:36:21.137Z,6.10
2023-01-09T00:38:49.732Z,6.08
2023-01-09T00:41:40.218Z,6.08
2023-01-09T00:44:22.370Z,6.05
2023-01-09T00:46:55.420Z,6.02
2023-01-09T00:49:23.652Z,5.97
2023-01-09T00:51:52.135Z,5.95
2023-01-09T00:54:20.746Z,5.94
2023-01-09T00:56:49.922Z,5.92
2023-01-09T00:59:18.011Z,5.90
2023-01-09T01:01:46.181Z,5.84
2023-01-09T01:04:34.302Z,5.80
2023-01-09T01:07:20.833Z,5.75
2023-01-09T01:09:48.819Z,5.73
2023-01-09T01:12:16.881Z,5.73
2023-01-09T01:14:45.024Z,5.73
2023-01-09T01:17:12.976Z,5.73
2023-01-09T01:19:41.000Z,5.76
2023-01-09T01:22:08.972Z,5.78
2023-01-09T01:24:36.962Z,5.80
2023-01-09T01:27:04.945Z,5.80
2023-01-09T01:29:32.946Z,5.79
2023-01-09T01:32:00.867Z,5.77
2023-01-09T01:34:30.237Z,5.75
2023-01-09T01:36:58.374Z,5.73
2023-01-09T01:39:26.332Z,5.64
2023-01-09T01:41:54.428Z,5.55
2023-01-09T01:45:14.175Z,5.47
2023-01-09T01:47:42.157Z,5.44
2023-01-09T01:50:17.905Z,5.48
2023-01-09T01:52:50.687Z,5.58
2023-01-09T01:55:19.655Z,5.64
2023-01-09T01:57:52.268Z,5.65
2023-01-09T02:00:27.559Z,5.70
2023-01-09T02:02:56.259Z,5.74
2023-01-09T02:05:24.553Z,5.75
2023-01-09T02:07:52.808Z,5.62
2023-01-09T02:10:23.724Z,5.69
2023-01-09T02:12:51.863Z,5.63
2023-01-09T02:15:20.748Z,5.61
2023-01-09T02:18:23.938Z,5.60
2023-01-09T02:20:58.023Z,5.55
2023-01-09T02:23:35.111Z,5.50
2023-01-09T02:26:32.158Z,5.45
2023-01-09T02:29:24.811Z,5.50
2023-01-09T02:32:12.764Z,5.57
2023-01-09T02:35:28.050Z,5.60
2023-01-09T02:38:14.645Z,5.59
2023-01-09T02:41:10.729Z,5.59
2023-01-09T02:43:40.744Z,5.55
2023-01-09T02:46:35.092Z,5.51
2023-01-09T02:49:04.316Z,5.48
2023-01-09T02:52:06.323Z,5.48
2023-01-09T02:54:55.655Z,5.50
2023-01-09T02:57:29.759Z,5.53
2023-01-09T03:00:16.805Z,5.51
2023-01-09T03:02:54.684Z,5.47
2023-01-09T03:05:29.006Z,5.48
2023-01-09T03:08:04.589Z,5.47
2023-01-09T03:11:24.318Z,5.46
2023-01-09T03:14:46.703Z,5.39
2023-01-09T03:17:22.585Z,5.45
2023-01-09T03:19:55.134Z,5.46
2023-01-09T03:22:26.986Z,5.48
2023-01-09T03:24:58.187Z,5.46
2023-01-09T03:27:31.485Z,5.46
2023-01-09T03:29:59.546Z,5.44
2023-01-09T03:32:28.046Z,5.43
2023-01-09T03:34:55.956Z,5.43
2023-01-09T03:37:23.985Z,5.45
2023-01-09T03:39:51.999Z,5.43
2023-01-09T03:42:19.867Z,5.37
2023-01-09T03:44:47.808Z,5.31
2023-01-09T03:47:16.785Z,5.24
2023-01-09T03:49:45.782Z,5.20
2023-01-09T03:52:14.224Z,5.15
2023-01-09T03:54:42.495Z,5.12
2023-01-09T03:57:10.498Z,5.10
2023-01-09T03:59:38.559Z,5.05
2023-01-09T04:02:07.441Z,5.01
2023-01-09T04:04:35.405Z,5.00
2023-01-09T04:07:03.436Z,5.00
2023-01-09T04:09:31.405Z,5.02
2023-01-09T04:11:59.311Z,5.02
2023-01-09T04:14:27.230Z,5.00
2023-01-09T04:16:57.477Z,4.99
2023-01-09T04:19:25.594Z,4.96
2023-01-09T04:21:53.472Z,4.94
2023-01-09T04:24:21.431Z,4.90
2023-01-09T04:26:49.517Z,4.86
2023-01-09T04:29:17.644Z,4.79
2023-01-09T04:31:45.686Z,4.74
2023-01-09T04:34:13.652Z,4.73
2023-01-09T04:36:43.150Z,4.76
2023-01-09T04:39:11.115Z,4.77
2023-01-09T04:41:51.121Z,4.76
2023-01-09T04:44:22.243Z,4.77
2023-01-09T04:46:50.256Z,4.80
2023-01-09T04:49:18.861Z,4.83
2023-01-09T04:51:46.933Z,4.83
2023-01-09T04:54:15.493Z,4.78
2023-01-09T04:57:03.459Z,4.78
2023-01-09T04:59:31.473Z,4.80
2023-01-09T05:01:59.978Z,4.82
2023-01-09T05:04:28.110Z,4.85
2023-01-09T05:07:16.296Z,4.86
2023-01-09T05:09:44.837Z,4.90
2023-01-09T05:12:12.780Z,4.95
2023-01-09T05:14:40.704Z,5.00
2023-01-09T05:17:08.640Z,5.06
2023-01-09T05:19:36.617Z,5.11
2023-01-09T05:22:04.609Z,5.13
2023-01-09T05:24:32.619Z,5.17
2023-01-09T05:27:02.844Z,5.21
2023-01-09T05:29:31.021Z,5.19
2023-01-09T05:31:59.159Z,5.12
2023-01-09T05:34:27.151Z,5.09
2023-01-09T05:36:55.039Z,5.09
2023-01-09T05:39:23.236Z,5.12
2023-01-09T05:41:51.234Z,5.15
2023-01-09T05:44:19.346Z,5.16
2023-01-09T05:46:47.249Z,5.16
2023-01-09T05:49:15.314Z,5.05
2023-01-09T05:51:43.375Z,5.09
2023-01-09T05:54:11.453Z,4.96
2023-01-09T05:56:39.534Z,4.89
2023-01-09T05:59:07.620Z,4.89
2023-01-09T06:01:35.680Z,4.93
2023-01-09T06:04:04.005Z,4.99
2023-01-09T06:06:32.047Z,5.01
2023-01-09T06:09:00.861Z,5.03
2023-01-09T06:11:29.083Z,5.07
2023-01-09T06:13:57.104Z,5.11
2023-01-09T06:16:25.233Z,5.12
2023-01-09T06:18:53.592Z,5.11
2023-01-09T06:21:22.443Z,5.15
2023-01-09T06:23:52.545Z,5.23
2023-01-09T06:26:21.496Z,5.31
2023-01-09T06:28:49.485Z,5.39
2023-01-09T06:31:18.046Z,5.46
2023-01-09T06:33:46.046Z,5.55
2023-01-09T06:36:15.006Z,5.59
2023-01-09T06:38:43.626Z,5.63
2023-01-09T06:41:12.283Z,5.67
2023-01-09T06:43:40.493Z,5.66
2023-01-09T06:46:08.700Z,5.66
2023-01-09T06:48:36.854Z,5.67
2023-01-09T06:51:05.138Z,5.70
2023-01-09T06:53:35.083Z,5.74
2023-01-09T06:56:03.765Z,5.78
2023-01-09T06:58:31.947Z,5.84
2023-01-09T07:01:00.074Z,5.88
2023-01-09T07:03:28.200Z,5.88
2023-01-09T07:05:56.791Z,5.87
2023-01-09T07:08:24.800Z,5.86
2023-01-09T07:10:52.896Z,5.88
2023-01-09T07:13:20.882Z,5.92
2023-01-09T07:15:50.262Z,5.95
2023-01-09T07:18:18.305Z,5.96
2023-01-09T07:20:47.090Z,5.98
2023-01-09T07:23:15.281Z,5.98
2023-01-09T07:25:43.463Z,6.02
2023-01-09T07:28:11.489Z,6.06
2023-01-09T07:30:39.662Z,6.09
2023-01-09T07:33:07.967Z,6.09
2023-01-09T07:35:36.091Z,6.08
2023-01-09T07:38:04.719Z,6.04
2023-01-09T07:40:32.834Z,6.08
2023-01-09T07:43:00.970Z,6.12
2023-01-09T07:45:29.295Z,6.16
2023-01-09T07:47:57.216Z,6.16
2023-01-09T07:50:25.257Z,6.15
2023-01-09T07:52:53.288Z,6.22
2023-01-09T07:55:21.408Z,6.25
2023-01-09T07:57:50.483Z,6.24
2023-01-09T08:00:21.204Z,6.32
2023-01-09T08:02:53.877Z,6.37
2023-01-09T08:05:22.736Z,6.44
2023-01-09T08:07:51.553Z,6.53
2023-01-09T08:10:20.033Z,6.54
2023-01-09T08:12:49.028Z,6.66
2023-01-09T08:15:17.980Z,6.71
2023-01-09T08:17:46.985Z,6.75
2023-01-09T08:20:16.937Z,6.79
2023-01-09T08:22:50.666Z,6.81
2023-01-09T08:25:19.118Z,6.84
2023-01-09T08:27:47.254Z,6.91
2023-01-09T08:30:17.362Z,6.95
2023-01-09T08:32:52.734Z,6.96
2023-01-09T08:35:21.156Z,7.03
2023-01-09T08:37:49.654Z,7.06
2023-01-09T08:40:17.977Z,7.09
2023-01-09T08:43:04.639Z,7.09
2023-01-09T08:45:51.860Z,7.10
2023-01-09T08:48:20.134Z,7.14
2023-01-09T08:50:48.598Z,7.17
2023-01-09T08:53:17.039Z,7.17
2023-01-09T08:55:46.283Z,7.19
2023-01-09T08:58:14.445Z,7.22
2023-01-09T09:00:42.547Z,7.26
2023-01-09T09:03:11.971Z,7.32
2023-01-09T09:05:40.149Z,7.35
2023-01-09T09:08:08.216Z,7.38
2023-01-09T09:10:36.320Z,7.41
2023-01-09T09:13:04.772Z,7.45
2023-01-09T09:15:34.436Z,7.50
2023-01-09T09:18:05.273Z,7.53
2023-01-09T09:20:36.662Z,7.58
2023-01-09T09:23:05.716Z,7.60
2023-01-09T09:25:34.104Z,7.59
2023-01-09T09:28:02.173Z,7.57
2023-01-09T09:30:30.270Z,7.55
2023-01-09T09:32:58.403Z,7.55
2023-01-09T09:35:28.673Z,7.53
2023-01-09T09:38:04.973Z,7.52
2023-01-09T09:40:39.929Z,7.55
2023-01-09T09:43:39.347Z,7.55
2023-01-09T09:46:42.883Z,7.57
2023-01-09T09:49:25.457Z,7.63
2023-01-09T09:52:19.617Z,7.68
2023-01-09T09:54:51.422Z,7.74
2023-01-09T09:57:26.753Z,7.76
2023-01-09T09:59:56.490Z,7.83
2023-01-09T10:02:52.317Z,7.90
2023-01-09T10:05:41.079Z,8.01
2023-01-09T10:08:48.500Z,8.13
2023-01-09T10:11:24.540Z,8.24
2023-01-09T10:14:22.777Z,8.33
2023-01-09T10:16:57.556Z,8.44
2023-01-09T10:19:44.067Z,8.55
2023-01-09T10:22:39.975Z,8.67
2023-01-09T10:25:42.832Z,8.79
2023-01-09T10:28:38.948Z,8.91
2023-01-09T10:31:22.557Z,9.04
2023-01-09T10:34:03.713Z,9.20
2023-01-09T10:37:05.069Z,9.31
2023-01-09T10:39:43.887Z,9.31
2023-01-09T10:42:35.249Z,9.25
2023-01-09T10:45:21.263Z,9.21
2023-01-09T10:47:50.051Z,9.23
2023-01-09T10:50:31.529Z,9.25
2023-01-09T10:53:05.321Z,9.30
2023-01-09T10:55:40.072Z,9.32
2023-01-09T10:58:13.605Z,9.33
2023-01-09T11:00:45.363Z,9.30
2023-01-09T11:03:15.818Z,9.29
2023-01-09T11:05:48.506Z,9.27
2023-01-09T11:08:42.173Z,9.31
2023-01-09T11:11:12.905Z,9.32
2023-01-09T11:13:46.913Z,9.34
2023-01-09T11:16:20.054Z,9.34
2023-01-09T11:18:51.938Z,9.34
2023-01-09T11:21:32.997Z,9.34
2023-01-09T11:24:19.714Z,9.34
2023-01-09T11:26:52.593Z,9.33
2023-01-09T11:29:27.252Z,9.35
2023-01-09T11:32:01.823Z,9.35
2023-01-09T11:34:36.392Z,9.38
2023-01-09T11:37:11.817Z,9.39
2023-01-09T11:39:48.218Z,9.43
2023-01-09T11:42:42.220Z,9.45
2023-01-09T11:45:33.014Z,9.46
2023-01-09T11:48:01.784Z,9.44
2023-01-09T11:50:31.659Z,9.37
2023-01-09T11:53:19.079Z,9.37
2023-01-09T11:56:05.477Z,9.38
2023-01-09T11:58:35.460Z,9.35
2023-01-09T12:01:15.986Z,9.35
2023-01-09T12:04:20.343Z,9.31
2023-01-09T12:06:54.592Z,9.28
2023-01-09T12:09:57.897Z,9.21
2023-01-09T12:12:45.124Z,9.19
2023-01-09T12:15:32.641Z,9.18
2023-01-09T12:18:25.577Z,9.16
2023-01-09T12:21:09.133Z,9.21
2023-01-09T12:24:04.750Z,9.22
2023-01-09T12:26:39.592Z,9.22
2023-01-09T12:29:26.730Z,9.19
2023-01-09T12:32:04.109Z,9.16
2023-01-09T12:34:54.865Z,9.18
2023-01-09T12:37:52.097Z,9.20
2023-01-09T12:40:30.758Z,9.18
2023-01-09T12:43:25.286Z,9.28
2023-01-09T12:46:20.924Z,9.28
2023-01-09T12:49:01.418Z,9.32
2023-01-09T12:51:45.767Z,9.42
2023-01-09T12:54:29.273Z,9.52
2023-01-09T12:57:03.030Z,9.60
2023-01-09T12:59:57.884Z,9.67
2023-01-09T13:03:03.778Z,9.68
2023-01-09T13:05:51.671Z,9.69
2023-01-09T13:08:50.367Z,9.71
2023-01-09T13:11:32.571Z,9.70
2023-01-09T13:14:16.360Z,9.73
2023-01-09T13:16:49.752Z,9.71
2023-01-09T13:19:25.448Z,9.69
2023-01-09T13:21:56.577Z,9.69
2023-01-09T13:24:39.223Z,9.67
2023-01-09T13:27:11.413Z,9.65
2023-01-09T13:29:45.742Z,9.60
2023-01-09T13:32:29.216Z,9.57
2023-01-09T13:34:58.105Z,9.49
2023-01-09T13:37:30.742Z,9.43
2023-01-09T13:40:07.190Z,9.38
2023-01-09T13:42:46.536Z,9.38
2023-01-09T13:45:17.726Z,9.33
2023-01-09T13:47:47.445Z,9.31
2023-01-09T13:50:26.515Z,9.28
2023-01-09T13:52:55.998Z,9.25
2023-01-09T13:55:36.199Z,9.25
2023-01-09T13:58:04.529Z,9.29
2023-01-09T14:00:35.625Z,9.31
2023-01-09T14:03:39.318Z,9.29
2023-01-09T14:06:14.610Z,9.29
2023-01-09T14:08:44.782Z,9.31
2023-01-09T14:11:20.673Z,9.32
2023-01-09T14:13:53.745Z,9.31
2023-01-09T14:16:24.959Z,9.32
2023-01-09T14:19:15.824Z,9.33
2023-01-09T14:21:47.373Z,9.31
2023-01-09T14:24:47.281Z,9.29
2023-01-09T14:27:49.461Z,9.26
2023-01-09T14:30:27.572Z,9.21
2023-01-09T14:33:26.502Z,9.17
2023-01-09T14:36:12.518Z,9.14
2023-01-09T14:39:01.337Z,9.14
2023-01-09T14:41:56.853Z,9.12
2023-01-09T14:44:40.995Z,9.11
2023-01-09T14:47:17.439Z,9.09
2023-01-09T14:50:06.281Z,9.08
2023-01-09T14:52:45.662Z,9.10
2023-01-09T14:55:35.669Z,9.14
2023-01-09T14:58:31.044Z,9.18
2023-01-09T15:01:05.022Z,9.22
2023-01-09T15:03:53.052Z,9.23
2023-01-09T15:06:27.032Z,9.19
2023-01-09T15:09:01.508Z,9.16
2023-01-09T15:11:31.265Z,9.11
2023-01-09T15:14:02.749Z,9.10
2023-01-09T15:16:33.034Z,9.09
2023-01-09T15:19:07.907Z,9.06
2023-01-09T15:21:36.027Z,9.05
2023-01-09T15:24:28.863Z,9.04
2023-01-09T15:27:01.193Z,9.06
2023-01-09T15:29:49.604Z,9.09
2023-01-09T15:32:28.731Z,9.10
2023-01-09T15:34:58.030Z,9.13
2023-01-09T15:37:38.790Z,9.14
2023-01-09T15:40:25.027Z,9.15
2023-01-09T15:42:57.555Z,9.12
2023-01-09T15:45:35.426Z,9.12
2023-01-09T15:48:24.627Z,9.14
2023-01-09T15:51:12.184Z,9.16
2023-01-09T15:53:41.664Z,9.16
2023-01-09T15:56:12.987Z,9.17
2023-01-09T15:58:47.334Z,9.16
2023-01-09T16:01:33.009Z,9.11
2023-01-09T16:04:11.342Z,9.10
2023-01-09T16:06:48.980Z,9.11
2023-01-09T16:09:29.367Z,9.13
2023-01-09T16:12:03.276Z,9.14
2023-01-09T16:14:38.689Z,9.15
2023-01-09T16:17:14.954Z,9.16
2023-01-09T16:19:49.100Z,9.17
2023-01-09T16:22:28.398Z,9.17
2023-01-09T16:24:59.449Z,9.16
2023-01-09T16:27:34.100Z,9.21
2023-01-09T16:30:25.171Z,9.21
2023-01-09T16:32:57.074Z,9.20
2023-01-09T16:35:26.456Z,9.19
2023-01-09T16:37:54.552Z,9.16
2023-01-09T16:40:25.277Z,9.13
2023-01-09T16:43:07.421Z,9.13
2023-01-09T16:45:37.184Z,9.14
2023-01-09T16:48:17.582Z,9.15
2023-01-09T16:50:45.670Z,9.12
2023-01-09T16:53:19.692Z,9.09
2023-01-09T16:55:47.798Z,9.09
2023-01-09T16:58:19.755Z,9.09
2023-01-09T17:00:48.218Z,9.09
2023-01-09T17:03:17.830Z,9.07
2023-01-09T17:05:50.511Z,9.06
2023-01-09T17:08:28.029Z,9.06
2023-01-09T17:10:57.675Z,9.07
2023-01-09T17:13:26.742Z,9.06
2023-01-09T17:15:55.961Z,9.06
2023-01-09T17:18:26.298Z,9.07
2023-01-09T17:20:56.762Z,9.09
2023-01-09T17:23:26.058Z,9.13
2023-01-09T17:26:17.230Z,9.15
2023-01-09T17:28:50.469Z,9.18
2023-01-09T17:31:19.329Z,9.20
2023-01-09T17:33:47.613Z,9.20
2023-01-09T17:36:34.710Z,9.25
2023-01-09T17:39:03.514Z,9.27
2023-01-09T17:41:32.586Z,9.28
2023-01-09T17:44:00.885Z,9.29
2023-01-09T17:46:35.736Z,9.29
2023-01-09T17:49:06.809Z,9.28
2023-01-09T17:51:34.988Z,9.26
2023-01-09T17:54:03.961Z,9.22
2023-01-09T17:56:34.694Z,9.20
2023-01-09T17:59:03.230Z,9.20
2023-01-09T18:01:31.689Z,9.19
2023-01-09T18:03:59.905Z,9.18
2023-01-09T18:06:29.154Z,9.16
2023-01-09T18:08:58.343Z,9.14
2023-01-09T18:11:26.958Z,9.15
2023-01-09T18:13:55.071Z,9.16
2023-01-09T18:16:25.681Z,9.16
2023-01-09T18:18:58.041Z,9.14
2023-01-09T18:21:28.515Z,9.16
2023-01-09T18:23:58.051Z,9.19
2023-01-09T18:26:26.228Z,9.21
2023-01-09T18:29:00.111Z,9.22
2023-01-09T18:31:31.432Z,9.23
2023-01-09T18:34:02.657Z,9.23
2023-01-09T18:36:31.352Z,9.23
2023-01-09T18:39:02.685Z,9.22
2023-01-09T18:41:34.726Z,9.21
2023-01-09T18:44:03.706Z,9.18
2023-01-09T18:46:36.034Z,9.21
2023-01-09T18:49:09.609Z,9.22
2023-01-09T18:51:37.632Z,9.23
2023-01-09T18:54:09.073Z,9.24
2023-01-09T18:56:37.531Z,9.25
2023-01-09T18:59:06.925Z,9.27
2023-01-09T19:01:35.403Z,9.28
2023-01-09T19:04:04.286Z,9.29
2023-01-09T19:06:32.464Z,9.29
2023-01-09T19:09:01.360Z,9.28
2023-01-09T19:11:29.817Z,9.27
2023-01-09T19:13:59.342Z,9.25
2023-01-09T19:16:27.548Z,9.23
2023-01-09T19:18:55.719Z,9.19
2023-01-09T19:21:26.954Z,9.18
2023-01-09T19:23:55.774Z,9.18
2023-01-09T19:26:26.121Z,9.17
2023-01-09T19:28:57.410Z,9.15
2023-01-09T19:31:28.985Z,9.14
2023-01-09T19:33:58.758Z,9.12
2023-01-09T19:36:28.561Z,9.12
2023-01-09T19:39:01.259Z,9.12
2023-01-09T19:41:29.953Z,9.13
2023-01-09T19:44:01.947Z,9.14
2023-01-09T19:46:33.644Z,9.14
2023-01-09T19:49:05.001Z,9.14
2023-01-09T19:51:34.058Z,9.11
2023-01-09T19:56:31.944Z,9.08
2023-01-09T19:59:02.698Z,9.08
2023-01-09T20:01:36.722Z,9.09
2023-01-09T20:04:14.213Z,9.09
2023-01-09T20:06:53.453Z,9.08
2023-01-09T20:09:22.706Z,9.06
2023-01-09T20:11:50.829Z,9.05
2023-01-09T20:14:19.911Z,9.02
2023-01-09T20:16:49.183Z,9.00
2023-01-09T20:19:17.517Z,8.97
2023-01-09T20:21:45.877Z,8.94
2023-01-09T20:24:16.887Z,8.94
2023-01-09T20:26:46.459Z,8.95
2023-01-09T20:29:14.697Z,8.92
2023-01-09T20:31:42.880Z,8.91
2023-01-09T20:34:13.160Z,8.89
2023-01-09T20:36:41.350Z,8.88
2023-01-09T20:39:11.790Z,8.85
2023-01-09T20:41:40.515Z,8.83
2023-01-09T20:44:12.883Z,8.81
2023-01-09T20:46:44.836Z,8.76
2023-01-09T20:49:14.757Z,8.73
2023-01-09T20:51:46.843Z,8.71
2023-01-09T20:54:16.752Z,8.66
2023-01-09T20:56:44.920Z,8.69
2023-01-09T20:59:17.215Z,8.68
2023-01-09T21:01:46.975Z,8.69
2023-01-09T21:04:15.393Z,8.70
2023-01-09T21:06:43.713Z,8.68
2023-01-09T21:09:11.919Z,8.65
2023-01-09T21:11:40.000Z,8.61
2023-01-09T21:14:09.174Z,8.54
2023-01-09T21:16:37.850Z,8.44
2023-01-09T21:19:07.303Z,8.39
2023-01-09T21:21:36.459Z,8.34
2023-01-09T21:24:04.970Z,8.28
2023-01-09T21:26:34.176Z,8.27
2023-01-09T21:29:08.504Z,8.30
2023-01-09T21:31:36.735Z,8.32
2023-01-09T21:34:07.653Z,8.35
2023-01-09T21:36:36.683Z,8.37
2023-01-09T21:39:08.319Z,8.34
2023-01-09T21:42:02.812Z,8.36
2023-01-09T21:44:49.800Z,8.36
2023-01-09T21:47:17.731Z,8.35
2023-01-09T21:49:45.764Z,8.35
2023-01-09T21:52:14.540Z,8.33
2023-01-09T21:54:42.631Z,8.30
2023-01-09T21:57:11.145Z,8.29
2023-01-09T21:59:39.278Z,8.29
2023-01-09T22:02:11.456Z,8.27
2023-01-09T22:04:40.090Z,8.28
2023-01-09T22:07:08.029Z,8.30
2023-01-09T22:09:37.550Z,8.33
2023-01-09T22:12:05.788Z,8.35
2023-01-09T22:14:36.176Z,8.40
2023-01-09T22:17:04.997Z,8.44
2023-01-09T22:19:33.260Z,8.49
2023-01-09T22:22:02.671Z,8.49
2023-01-09T22:24:30.685Z,8.43
2023-01-09T22:26:58.911Z,8.37
2023-01-09T22:29:26.938Z,8.32
2023-01-09T22:32:03.553Z,8.29
2023-01-09T22:34:31.650Z,8.27
2023-01-09T22:37:00.858Z,8.26
2023-01-09T22:39:28.905Z,8.27
2023-01-09T22:41:56.880Z,8.27
2023-01-09T22:44:25.075Z,8.21
2023-01-09T22:46:52.970Z,8.16
2023-01-09T22:49:20.968Z,8.11
2023-01-09T22:51:48.893Z,8.06
2023-01-09T22:54:17.176Z,8.00
2023-01-09T22:56:45.106Z,7.98
2023-01-09T22:59:13.005Z,7.97
2023-01-09T23:01:41.001Z,7.94
2023-01-09T23:04:13.620Z,7.91
2023-01-09T23:06:41.721Z,7.87
2023-01-09T23:09:10.050Z,7.83
2023-01-09T23:11:56.393Z,7.79
2023-01-09T23:14:24.581Z,7.77
2023-01-09T23:16:52.606Z,7.75
2023-01-09T23:19:20.920Z,7.74
2023-01-09T23:21:48.948Z,7.74
2023-01-09T23:24:18.467Z,7.72
2023-01-09T23:26:47.971Z,7.70
2023-01-09T23:29:16.097Z,7.68
2023-01-09T23:31:45.084Z,7.68
2023-01-09T23:34:16.762Z,7.70
2023-01-09T23:36:44.826Z,7.72
2023-01-09T23:39:12.999Z,7.70
2023-01-09T23:42:00.249Z,7.67
2023-01-09T23:44:28.978Z,7.67
2023-01-09T23:46:57.467Z,7.67
2023-01-09T23:49:25.787Z,7.67
2023-01-09T23:51:53.789Z,7.65
2023-01-09T23:54:21.854Z,7.63
2023-01-09T23:56:49.963Z,7.64
2023-01-09T23:59:18.179Z,7.63
